createdAt,value
2022-11-02T00:00:14.177Z,7.48
2022-11-02T00:01:14.236Z,7.53
2022-11-02T00:02:14.232Z,7.57
2022-11-02T00:03:14.276Z,7.60
2022-11-02T00:04:14.142Z,7.61
2022-11-02T00:05:14.150Z,7.63
2022-11-02T00:06:14.193Z,7.64
2022-11-02T00:07:14.152Z,7.65
2022-11-02T00:08:14.103Z,7.67
2022-11-02T00:09:14.088Z,7.68
2022-11-02T00:10:14.086Z,7.68
2022-11-02T00:11:14.112Z,7.67
2022-11-02T00:12:14.120Z,7.66
2022-11-02T00:13:14.043Z,7.64
2022-11-02T00:14:14.091Z,7.62
2022-11-02T00:15:14.070Z,7.57
2022-11-02T00:16:14.062Z,7.49
2022-11-02T00:17:14.056Z,7.41
2022-11-02T00:18:14.012Z,7.33
2022-11-02T00:19:14.097Z,7.26
2022-11-02T00:20:13.974Z,7.20
2022-11-02T00:21:15.929Z,7.16
2022-11-02T00:22:13.967Z,7.14
2022-11-02T00:23:14.093Z,7.12
2022-11-02T00:24:14.027Z,7.10
2022-11-02T00:25:13.934Z,7.08
2022-11-02T00:26:13.939Z,7.06
2022-11-02T00:27:14.128Z,7.05
2022-11-02T00:28:14.135Z,7.05
2022-11-02T00:29:13.948Z,7.05
2022-11-02T00:30:13.918Z,7.05
2022-11-02T00:31:13.887Z,7.05
2022-11-02T00:32:13.856Z,7.05
2022-11-02T00:33:13.914Z,7.06
2022-11-02T00:34:13.894Z,7.07
2022-11-02T00:35:13.838Z,7.07
2022-11-02T00:36:13.983Z,7.07
2022-11-02T00:37:14.392Z,7.06
2022-11-02T00:38:13.859Z,7.05
2022-11-02T00:39:13.874Z,7.03
2022-11-02T00:40:13.836Z,7.02
2022-11-02T00:41:13.959Z,7.02
2022-11-02T00:42:13.762Z,7.02
2022-11-02T00:43:13.765Z,7.03
2022-11-02T00:44:13.755Z,7.03
2022-11-02T00:45:13.757Z,7.03
2022-11-02T00:46:13.760Z,7.04
2022-11-02T00:47:13.731Z,7.05
2022-11-02T00:48:13.818Z,7.05
2022-11-02T00:49:13.702Z,7.05
2022-11-02T00:50:13.676Z,7.06
2022-11-02T00:51:13.667Z,7.08
2022-11-02T00:52:13.740Z,7.11
2022-11-02T00:53:13.750Z,7.13
2022-11-02T00:54:13.747Z,7.15
2022-11-02T00:55:13.630Z,7.15
2022-11-02T00:56:13.676Z,7.14
2022-11-02T00:57:13.613Z,7.14
2022-11-02T00:58:13.618Z,7.14
2022-11-02T00:59:13.689Z,7.13
2022-11-02T01:00:13.586Z,7.14
2022-11-02T01:01:13.790Z,7.15
2022-11-02T01:02:13.777Z,7.16
2022-11-02T01:03:13.653Z,7.15
2022-11-02T01:04:13.559Z,7.15
2022-11-02T01:05:13.572Z,7.14
2022-11-02T01:06:13.536Z,7.12
2022-11-02T01:07:13.511Z,7.12
2022-11-02T01:08:13.583Z,7.13
2022-11-02T01:09:13.549Z,7.15
2022-11-02T01:10:13.601Z,7.16
2022-11-02T01:11:13.567Z,7.15
2022-11-02T01:12:13.471Z,7.11
2022-11-02T01:13:13.459Z,7.07
2022-11-02T01:14:13.455Z,7.03
2022-11-02T01:15:13.587Z,6.98
2022-11-02T01:16:13.431Z,6.94
2022-11-02T01:17:13.439Z,6.90
2022-11-02T01:18:13.403Z,6.86
2022-11-02T01:19:13.455Z,6.83
2022-11-02T01:20:13.379Z,6.80
2022-11-02T01:21:13.476Z,6.78
2022-11-02T01:22:13.513Z,6.77
2022-11-02T01:23:13.390Z,6.76
2022-11-02T01:24:13.528Z,6.75
2022-11-02T01:25:13.465Z,6.73
2022-11-02T01:26:13.342Z,6.70
2022-11-02T01:27:13.443Z,6.68
2022-11-02T01:28:13.360Z,6.65
2022-11-02T01:29:13.332Z,6.63
2022-11-02T01:30:13.337Z,6.63
2022-11-02T01:31:13.294Z,6.63
2022-11-02T01:32:13.455Z,6.65
2022-11-02T01:33:13.257Z,6.68
2022-11-02T01:34:13.280Z,6.72
2022-11-02T01:35:13.332Z,6.76
2022-11-02T01:36:13.289Z,6.79
2022-11-02T01:37:13.238Z,6.82
2022-11-02T01:38:13.279Z,6.84
2022-11-02T01:39:13.593Z,6.85
2022-11-02T01:40:13.197Z,6.86
2022-11-02T01:41:13.250Z,6.87
2022-11-02T01:42:13.167Z,6.87
2022-11-02T01:43:13.321Z,6.86
2022-11-02T01:44:13.176Z,6.86
2022-11-02T01:45:13.293Z,6.85
2022-11-02T01:46:13.149Z,6.85
2022-11-02T01:47:13.210Z,6.84
2022-11-02T01:48:13.120Z,6.83
2022-11-02T01:49:13.188Z,6.82
2022-11-02T01:50:13.095Z,6.81
2022-11-02T01:51:13.116Z,6.81
2022-11-02T01:52:13.154Z,6.79
2022-11-02T01:53:13.062Z,6.76
2022-11-02T01:54:13.046Z,6.73
2022-11-02T01:55:13.101Z,6.69
2022-11-02T01:56:13.150Z,6.65
2022-11-02T01:57:13.105Z,6.62
2022-11-02T01:58:13.022Z,6.60
2022-11-02T01:59:13.118Z,6.58
2022-11-02T02:00:13.069Z,6.56
2022-11-02T02:01:20.322Z,6.56
2022-11-02T02:02:13.139Z,6.56
2022-11-02T02:03:13.137Z,6.56
2022-11-02T02:04:12.953Z,6.56
2022-11-02T02:05:12.932Z,6.55
2022-11-02T02:06:12.976Z,6.56
2022-11-02T02:07:12.938Z,6.57
2022-11-02T02:08:13.021Z,6.59
2022-11-02T02:09:12.902Z,6.62
2022-11-02T02:10:12.898Z,6.65
2022-11-02T02:11:12.919Z,6.67
2022-11-02T02:12:12.860Z,6.70
2022-11-02T02:13:12.862Z,6.74
2022-11-02T02:14:12.906Z,6.79
2022-11-02T02:15:12.834Z,6.84
2022-11-02T02:16:12.888Z,6.88
2022-11-02T02:17:12.885Z,6.92
2022-11-02T02:18:12.818Z,6.95
2022-11-02T02:19:12.865Z,6.97
2022-11-02T02:20:12.808Z,6.99
2022-11-02T02:21:12.831Z,7.00
2022-11-02T02:22:12.879Z,7.02
2022-11-02T02:23:12.763Z,7.01
2022-11-02T02:24:12.806Z,6.99
2022-11-02T02:25:12.779Z,6.96
2022-11-02T02:26:12.844Z,6.92
2022-11-02T02:27:12.707Z,6.89
2022-11-02T02:28:12.703Z,6.85
2022-11-02T02:29:12.719Z,6.82
2022-11-02T02:30:12.681Z,6.79
2022-11-02T02:31:12.695Z,6.76
2022-11-02T02:32:12.725Z,6.73
2022-11-02T02:33:12.711Z,6.70
2022-11-02T02:34:12.692Z,6.68
2022-11-02T02:35:12.640Z,6.65
2022-11-02T02:36:12.640Z,6.63
2022-11-02T02:37:12.723Z,6.59
2022-11-02T02:38:12.624Z,6.53
2022-11-02T02:39:12.595Z,6.46
2022-11-02T02:40:12.680Z,6.35
2022-11-02T02:41:12.669Z,6.22
2022-11-02T02:42:12.590Z,6.12
2022-11-02T02:43:12.605Z,6.02
2022-11-02T02:44:12.588Z,5.93
2022-11-02T02:45:12.529Z,5.84
2022-11-02T02:46:12.578Z,5.75
2022-11-02T02:47:12.518Z,5.65
2022-11-02T02:48:12.507Z,5.56
2022-11-02T02:49:12.559Z,5.47
2022-11-02T02:50:12.540Z,5.39
2022-11-02T02:51:12.499Z,5.33
2022-11-02T02:52:12.482Z,5.29
2022-11-02T02:53:12.529Z,5.29
2022-11-02T02:54:12.444Z,5.33
2022-11-02T02:55:12.471Z,5.37
2022-11-02T02:56:12.515Z,5.41
2022-11-02T02:57:12.460Z,5.44
2022-11-02T02:58:12.421Z,5.47
2022-11-02T02:59:12.401Z,5.47
2022-11-02T03:00:12.404Z,5.47
2022-11-02T03:01:12.582Z,5.48
2022-11-02T03:02:12.543Z,5.48
2022-11-02T03:03:12.424Z,5.50
2022-11-02T03:04:12.357Z,5.52
2022-11-02T03:05:12.340Z,5.56
2022-11-02T03:06:12.366Z,5.60
2022-11-02T03:07:12.342Z,5.62
2022-11-02T03:08:12.359Z,5.64
2022-11-02T03:09:12.298Z,5.65
2022-11-02T03:10:12.324Z,5.65
2022-11-02T03:11:12.283Z,5.65
2022-11-02T03:12:12.407Z,5.64
2022-11-02T03:13:12.255Z,5.63
2022-11-02T03:14:12.364Z,5.61
2022-11-02T03:15:12.281Z,5.59
2022-11-02T03:16:12.351Z,5.58
2022-11-02T03:17:12.224Z,5.57
2022-11-02T03:18:12.209Z,5.56
2022-11-02T03:19:12.257Z,5.55
2022-11-02T03:20:12.222Z,5.53
2022-11-02T03:21:12.185Z,5.50
2022-11-02T03:22:12.170Z,5.49
2022-11-02T03:23:12.173Z,5.48
2022-11-02T03:24:12.251Z,5.51
2022-11-02T03:25:12.232Z,5.55
2022-11-02T03:26:12.196Z,5.59
2022-11-02T03:27:12.134Z,5.64
2022-11-02T03:28:12.109Z,5.66
2022-11-02T03:29:12.212Z,5.66
2022-11-02T03:30:12.143Z,5.64
2022-11-02T03:31:12.077Z,5.63
2022-11-02T03:32:12.135Z,5.63
2022-11-02T03:33:12.101Z,5.65
2022-11-02T03:34:12.055Z,5.66
2022-11-02T03:35:12.088Z,5.67
2022-11-02T03:36:12.092Z,5.67
2022-11-02T03:37:12.074Z,5.66
2022-11-02T03:38:12.072Z,5.66
2022-11-02T03:39:12.069Z,5.67
2022-11-02T03:40:12.177Z,5.69
2022-11-02T03:41:11.995Z,5.71
2022-11-02T03:42:12.003Z,5.72
2022-11-02T03:43:12.017Z,5.73
2022-11-02T03:44:11.966Z,5.74
2022-11-02T03:45:11.934Z,5.75
2022-11-02T03:46:11.980Z,5.75
2022-11-02T03:47:11.938Z,5.76
2022-11-02T03:48:11.912Z,5.76
2022-11-02T03:49:11.942Z,5.76
2022-11-02T03:50:11.951Z,5.77
2022-11-02T03:51:11.888Z,5.79
2022-11-02T03:52:11.862Z,5.82
2022-11-02T03:53:11.944Z,5.87
2022-11-02T03:54:11.851Z,5.93
2022-11-02T03:55:11.843Z,5.99
2022-11-02T03:56:11.855Z,6.04
2022-11-02T03:57:11.825Z,6.08
2022-11-02T03:58:11.865Z,6.11
2022-11-02T03:59:11.807Z,6.12
2022-11-02T04:00:11.798Z,6.13
2022-11-02T04:01:11.822Z,6.12
2022-11-02T04:02:11.948Z,6.11
2022-11-02T04:03:11.832Z,6.10
2022-11-02T04:04:11.927Z,6.09
2022-11-02T04:05:11.749Z,6.08
2022-11-02T04:06:11.736Z,6.08
2022-11-02T04:07:12.089Z,6.08
2022-11-02T04:08:11.710Z,6.09
2022-11-02T04:09:11.798Z,6.09
2022-11-02T04:10:11.712Z,6.09
2022-11-02T04:11:11.782Z,6.11
2022-11-02T04:12:11.678Z,6.13
2022-11-02T04:13:11.664Z,6.15
2022-11-02T04:14:11.683Z,6.17
2022-11-02T04:15:11.705Z,6.18
2022-11-02T04:16:11.632Z,6.20
2022-11-02T04:17:11.632Z,6.23
2022-11-02T04:18:11.614Z,6.27
2022-11-02T04:19:11.688Z,6.30
2022-11-02T04:20:11.595Z,6.33
2022-11-02T04:21:11.592Z,6.37
2022-11-02T04:22:11.616Z,6.41
2022-11-02T04:23:11.692Z,6.43
2022-11-02T04:24:11.553Z,6.46
2022-11-02T04:25:11.630Z,6.49
2022-11-02T04:26:11.532Z,6.52
2022-11-02T04:27:12.356Z,6.55
2022-11-02T04:28:11.565Z,6.56
2022-11-02T04:29:11.513Z,6.57
2022-11-02T04:30:11.495Z,6.58
2022-11-02T04:31:11.507Z,6.60
2022-11-02T04:32:11.532Z,6.62
2022-11-02T04:33:11.483Z,6.62
2022-11-02T04:34:11.449Z,6.62
2022-11-02T04:35:11.456Z,6.62
2022-11-02T04:36:11.438Z,6.62
2022-11-02T04:37:11.440Z,6.62
2022-11-02T04:38:11.486Z,6.61
2022-11-02T04:39:11.445Z,6.59
2022-11-02T04:40:11.489Z,6.56
2022-11-02T04:41:11.450Z,6.52
2022-11-02T04:42:11.436Z,6.50
2022-11-02T04:43:11.364Z,6.46
2022-11-02T04:44:11.361Z,6.42
2022-11-02T04:45:11.374Z,6.39
2022-11-02T04:46:11.374Z,6.38
2022-11-02T04:47:11.385Z,6.37
2022-11-02T04:48:11.309Z,6.35
2022-11-02T04:49:11.383Z,6.33
2022-11-02T04:50:11.294Z,6.30
2022-11-02T04:51:11.290Z,6.28
2022-11-02T04:52:11.270Z,6.25
2022-11-02T04:53:11.319Z,6.24
2022-11-02T04:54:11.317Z,6.23
2022-11-02T04:55:11.255Z,6.21
2022-11-02T04:56:11.242Z,6.21
2022-11-02T04:57:11.276Z,6.23
2022-11-02T04:58:11.207Z,6.25
2022-11-02T04:59:11.209Z,6.26
2022-11-02T05:00:11.662Z,6.27
2022-11-02T05:01:11.248Z,6.27
2022-11-02T05:02:11.265Z,6.27
2022-11-02T05:03:12.508Z,6.26
2022-11-02T05:04:11.180Z,6.25
2022-11-02T05:05:11.178Z,6.23
2022-11-02T05:06:11.196Z,6.20
2022-11-02T05:07:11.132Z,6.16
2022-11-02T05:08:11.111Z,6.10
2022-11-02T05:09:11.104Z,6.05
2022-11-02T05:10:11.141Z,6.04
2022-11-02T05:11:11.345Z,6.05
2022-11-02T05:12:11.087Z,6.10
2022-11-02T05:13:11.069Z,6.15
2022-11-02T05:14:11.059Z,6.21
2022-11-02T05:15:11.063Z,6.26
2022-11-02T05:16:11.056Z,6.33
2022-11-02T05:17:11.089Z,6.38
2022-11-02T05:18:16.169Z,6.40
2022-11-02T05:19:11.273Z,6.41
2022-11-02T05:20:11.007Z,6.42
2022-11-02T05:21:10.998Z,6.44
2022-11-02T05:22:10.994Z,6.47
2022-11-02T05:23:11.039Z,6.49
2022-11-02T05:24:11.028Z,6.51
2022-11-02T05:25:10.950Z,6.52
2022-11-02T05:26:10.959Z,6.52
2022-11-02T05:27:10.991Z,6.53
2022-11-02T05:28:10.938Z,6.53
2022-11-02T05:29:10.961Z,6.53
2022-11-02T05:30:10.846Z,6.53
2022-11-02T05:31:10.951Z,6.52
2022-11-02T05:32:10.875Z,6.51
2022-11-02T05:33:10.882Z,6.48
2022-11-02T05:34:11.005Z,6.44
2022-11-02T05:35:10.845Z,6.39
2022-11-02T05:36:10.886Z,6.35
2022-11-02T05:37:10.819Z,6.31
2022-11-02T05:38:10.771Z,6.27
2022-11-02T05:39:10.808Z,6.24
2022-11-02T05:40:10.883Z,6.20
2022-11-02T05:41:10.735Z,6.16
2022-11-02T05:42:10.781Z,6.14
2022-11-02T05:43:10.750Z,6.08
2022-11-02T05:44:10.696Z,5.99
2022-11-02T05:45:10.777Z,5.90
2022-11-02T05:46:10.763Z,5.84
2022-11-02T05:47:11.098Z,5.81
2022-11-02T05:48:10.663Z,5.82
2022-11-02T05:49:10.781Z,5.83
2022-11-02T05:50:10.727Z,5.84
2022-11-02T05:51:10.673Z,5.87
2022-11-02T05:52:10.623Z,5.92
2022-11-02T05:53:10.793Z,5.97
2022-11-02T05:54:10.659Z,6.03
2022-11-02T05:55:10.599Z,6.07
2022-11-02T05:56:10.583Z,6.13
2022-11-02T05:57:10.607Z,6.18
2022-11-02T05:58:10.569Z,6.22
2022-11-02T05:59:10.561Z,6.25
2022-11-02T06:00:10.604Z,6.30
2022-11-02T06:01:10.599Z,6.34
2022-11-02T06:02:10.623Z,6.38
2022-11-02T06:03:10.572Z,6.42
2022-11-02T06:04:10.602Z,6.46
2022-11-02T06:05:10.535Z,6.50
2022-11-02T06:06:10.550Z,6.53
2022-11-02T06:07:10.540Z,6.56
2022-11-02T06:08:10.457Z,6.58
2022-11-02T06:09:10.462Z,6.59
2022-11-02T06:10:10.459Z,6.60
2022-11-02T06:11:10.500Z,6.60
2022-11-02T06:12:10.425Z,6.59
2022-11-02T06:13:10.571Z,6.58
2022-11-02T06:14:10.421Z,6.57
2022-11-02T06:15:10.403Z,6.57
2022-11-02T06:16:10.409Z,6.57
2022-11-02T06:17:10.451Z,6.57
2022-11-02T06:18:10.414Z,6.57
2022-11-02T06:19:10.449Z,6.56
2022-11-02T06:20:10.344Z,6.56
2022-11-02T06:21:10.353Z,6.55
2022-11-02T06:22:10.382Z,6.55
2022-11-02T06:23:10.345Z,6.55
2022-11-02T06:24:10.323Z,6.56
2022-11-02T06:25:10.305Z,6.58
2022-11-02T06:26:10.456Z,6.59
2022-11-02T06:27:10.324Z,6.60
2022-11-02T06:28:10.502Z,6.61
2022-11-02T06:29:10.424Z,6.63
2022-11-02T06:30:10.292Z,6.63
2022-11-02T06:31:10.240Z,6.64
2022-11-02T06:32:10.272Z,6.66
2022-11-02T06:33:10.605Z,6.67
2022-11-02T06:34:10.213Z,6.68
2022-11-02T06:35:10.212Z,6.69
2022-11-02T06:36:10.197Z,6.69
2022-11-02T06:37:10.414Z,6.70
2022-11-02T06:38:10.186Z,6.71
2022-11-02T06:39:10.163Z,6.73
2022-11-02T06:40:10.167Z,6.74
2022-11-02T06:41:10.180Z,6.76
2022-11-02T06:42:10.125Z,6.78
2022-11-02T06:43:16.549Z,6.79
2022-11-02T06:44:10.115Z,6.80
2022-11-02T06:45:10.094Z,6.80
2022-11-02T06:46:10.614Z,6.80
2022-11-02T06:47:10.091Z,6.80
2022-11-02T06:48:10.067Z,6.81
2022-11-02T06:49:10.060Z,6.83
2022-11-02T06:50:10.056Z,6.85
2022-11-02T06:51:10.190Z,6.87
2022-11-02T06:52:10.072Z,6.90
2022-11-02T06:53:10.026Z,6.95
2022-11-02T06:54:10.117Z,7.00
2022-11-02T06:55:10.004Z,7.06
2022-11-02T06:56:09.998Z,7.11
2022-11-02T06:57:09.982Z,7.16
2022-11-02T06:58:10.015Z,7.21
2022-11-02T06:59:09.980Z,7.26
2022-11-02T07:01:10.208Z,7.37
2022-11-02T07:02:10.068Z,7.41
2022-11-02T07:03:10.049Z,7.45
2022-11-02T07:04:09.957Z,7.48
2022-11-02T07:05:09.904Z,7.51
2022-11-02T07:06:14.121Z,7.55
2022-11-02T07:07:09.923Z,7.59
2022-11-02T07:08:09.869Z,7.63
2022-11-02T07:09:09.890Z,7.68
2022-11-02T07:10:09.886Z,7.72
2022-11-02T07:11:09.859Z,7.77
2022-11-02T07:12:09.885Z,7.83
2022-11-02T07:13:09.922Z,7.88
2022-11-02T07:14:09.881Z,7.93
2022-11-02T07:15:09.826Z,7.98
2022-11-02T07:16:09.831Z,8.02
2022-11-02T07:17:09.833Z,8.06
2022-11-02T07:18:09.768Z,8.11
2022-11-02T07:19:09.765Z,8.15
2022-11-02T07:20:09.752Z,8.20
2022-11-02T07:21:09.818Z,8.24
2022-11-02T07:22:09.811Z,8.29
2022-11-02T07:23:10.210Z,8.35
2022-11-02T07:24:09.753Z,8.41
2022-11-02T07:25:09.743Z,8.48
2022-11-02T07:26:09.694Z,8.53
2022-11-02T07:27:09.677Z,8.57
2022-11-02T07:28:09.752Z,8.61
2022-11-02T07:29:09.661Z,8.63
2022-11-02T07:30:09.695Z,8.66
2022-11-02T07:31:09.639Z,8.69
2022-11-02T07:32:09.639Z,8.72
2022-11-02T07:33:09.685Z,8.75
2022-11-02T07:34:14.049Z,8.79
2022-11-02T07:35:09.622Z,8.84
2022-11-02T07:36:09.590Z,8.88
2022-11-02T07:37:09.611Z,8.92
2022-11-02T07:38:09.593Z,8.95
2022-11-02T07:39:09.580Z,9.00
2022-11-02T07:40:09.591Z,9.03
2022-11-02T07:41:09.602Z,9.06
2022-11-02T07:42:09.534Z,9.07
2022-11-02T07:43:09.704Z,9.08
2022-11-02T07:44:09.509Z,9.10
2022-11-02T07:45:09.523Z,9.14
2022-11-02T07:46:09.493Z,9.18
2022-11-02T07:47:09.477Z,9.21
2022-11-02T07:48:09.488Z,9.21
2022-11-02T07:49:09.465Z,9.20
2022-11-02T07:50:09.454Z,9.22
2022-11-02T07:51:09.459Z,9.24
2022-11-02T07:52:09.472Z,9.27
2022-11-02T07:53:09.439Z,9.30
2022-11-02T07:54:09.429Z,9.34
2022-11-02T07:55:09.395Z,9.40
2022-11-02T07:56:09.466Z,9.44
2022-11-02T07:57:09.411Z,9.46
2022-11-02T07:58:09.372Z,9.49
2022-11-02T07:59:09.390Z,9.51
2022-11-02T08:00:09.357Z,9.52
2022-11-02T08:01:09.428Z,9.51
2022-11-02T08:02:09.377Z,9.49
2022-11-02T08:03:09.926Z,9.48
2022-11-02T08:04:09.447Z,9.47
2022-11-02T08:05:09.300Z,9.46
2022-11-02T08:06:09.326Z,9.49
2022-11-02T08:07:09.274Z,9.54
2022-11-02T08:08:09.480Z,9.57
2022-11-02T08:09:09.279Z,9.61
2022-11-02T08:10:09.260Z,9.68
2022-11-02T08:11:09.258Z,9.77
2022-11-02T08:12:09.234Z,9.85
2022-11-02T08:13:09.267Z,9.91
2022-11-02T08:14:09.215Z,9.96
2022-11-02T08:15:09.192Z,10.00
2022-11-02T08:16:09.234Z,10.05
2022-11-02T08:17:09.229Z,10.10
2022-11-02T08:18:09.343Z,10.19
2022-11-02T08:19:09.191Z,10.26
2022-11-02T08:20:09.149Z,10.32
2022-11-02T08:21:09.144Z,10.35
2022-11-02T08:22:09.188Z,10.35
2022-11-02T08:23:09.144Z,10.34
2022-11-02T08:24:09.111Z,10.33
2022-11-02T08:25:09.120Z,10.32
2022-11-02T08:26:09.114Z,10.32
2022-11-02T08:27:09.072Z,10.32
2022-11-02T08:28:09.089Z,10.32
2022-11-02T08:29:09.064Z,10.30
2022-11-02T08:30:09.628Z,10.28
2022-11-02T08:31:09.028Z,10.29
2022-11-02T08:32:09.094Z,10.31
2022-11-02T08:33:09.029Z,10.34
2022-11-02T08:34:13.814Z,10.40
2022-11-02T08:35:09.070Z,10.46
2022-11-02T08:36:09.650Z,10.51
2022-11-02T08:37:09.827Z,10.55
2022-11-02T08:38:09.009Z,10.57
2022-11-02T08:39:13.359Z,10.59
2022-11-02T08:40:09.037Z,10.62
2022-11-02T08:41:09.127Z,10.68
2022-11-02T08:42:08.944Z,10.79
2022-11-02T08:43:08.911Z,10.89
2022-11-02T08:44:09.366Z,10.99
2022-11-02T08:45:08.956Z,11.08
2022-11-02T08:46:14.915Z,11.12
2022-11-02T08:47:09.675Z,11.13
2022-11-02T08:48:08.978Z,11.13
2022-11-02T08:49:08.913Z,11.11
2022-11-02T08:50:08.913Z,11.06
2022-11-02T08:51:08.877Z,11.05
2022-11-02T08:52:08.969Z,11.09
2022-11-02T08:53:08.901Z,11.17
2022-11-02T08:54:09.027Z,11.24
2022-11-02T08:55:08.875Z,11.30
2022-11-02T08:56:08.799Z,11.35
2022-11-02T08:57:09.029Z,11.40
2022-11-02T08:58:08.871Z,11.45
2022-11-02T08:59:13.687Z,11.47
2022-11-02T09:00:10.425Z,11.44
2022-11-02T09:01:09.743Z,11.37
2022-11-02T09:02:08.955Z,11.28
2022-11-02T09:03:08.724Z,11.22
2022-11-02T09:04:08.833Z,11.18
2022-11-02T09:05:08.753Z,11.16
2022-11-02T09:06:08.708Z,11.17
2022-11-02T09:07:08.735Z,11.19
2022-11-02T09:08:08.859Z,11.20
2022-11-02T09:09:08.702Z,11.22
2022-11-02T09:10:08.687Z,11.25
2022-11-02T09:11:09.515Z,11.26
2022-11-02T09:12:29.737Z,11.27
2022-11-02T09:13:08.954Z,11.28
2022-11-02T09:14:09.010Z,11.27
2022-11-02T09:15:08.667Z,11.24
2022-11-02T09:16:08.871Z,11.24
2022-11-02T09:17:10.005Z,11.27
2022-11-02T09:18:08.832Z,11.33
2022-11-02T09:19:08.818Z,11.37
2022-11-02T09:20:08.623Z,11.41
2022-11-02T09:21:09.828Z,11.43
2022-11-02T09:22:08.769Z,11.44
2022-11-02T09:23:08.956Z,11.49
2022-11-02T09:24:08.753Z,11.55
2022-11-02T09:25:08.594Z,11.61
2022-11-02T09:26:08.714Z,11.66
2022-11-02T09:27:08.745Z,11.68
2022-11-02T09:28:09.119Z,11.69
2022-11-02T09:29:08.551Z,11.75
2022-11-02T09:30:08.481Z,11.81
2022-11-02T09:31:10.786Z,11.80
2022-11-02T09:32:08.574Z,11.75
2022-11-02T09:33:08.615Z,11.68
2022-11-02T09:34:08.599Z,11.63
2022-11-02T09:35:08.456Z,11.63
2022-11-02T09:36:08.504Z,11.63
2022-11-02T09:37:10.727Z,11.66
2022-11-02T09:38:08.409Z,11.71
2022-11-02T09:39:08.424Z,11.70
2022-11-02T09:40:08.725Z,11.62
2022-11-02T09:41:08.721Z,11.51
2022-11-02T09:42:08.742Z,11.44
2022-11-02T09:43:08.701Z,11.42
2022-11-02T09:44:08.459Z,11.43
2022-11-02T09:45:08.352Z,11.44
2022-11-02T09:46:08.778Z,11.45
2022-11-02T09:47:55.966Z,11.45
2022-11-02T09:48:26.741Z,11.44
2022-11-02T09:49:09.296Z,11.43
2022-11-02T09:50:09.148Z,11.39
2022-11-02T09:51:08.266Z,11.36
2022-11-02T09:52:08.413Z,11.35
2022-11-02T09:53:08.494Z,11.36
2022-11-02T09:54:11.779Z,11.36
2022-11-02T09:55:08.279Z,11.35
2022-11-02T09:56:08.206Z,11.36
2022-11-02T09:57:08.186Z,11.39
2022-11-02T09:58:08.155Z,11.41
2022-11-02T09:59:08.227Z,11.43
2022-11-02T10:00:08.140Z,11.46
2022-11-02T10:01:08.130Z,11.50
2022-11-02T10:02:08.117Z,11.52
2022-11-02T10:03:08.163Z,11.50
2022-11-02T10:04:08.177Z,11.46
2022-11-02T10:05:08.092Z,11.44
2022-11-02T10:06:08.103Z,11.43
2022-11-02T10:07:08.875Z,11.44
2022-11-02T10:08:08.345Z,11.47
2022-11-02T10:09:08.074Z,11.51
2022-11-02T10:10:08.079Z,11.54
2022-11-02T10:11:08.477Z,11.58
2022-11-02T10:12:08.020Z,11.62
2022-11-02T10:13:08.169Z,11.64
2022-11-02T10:14:08.646Z,11.68
2022-11-02T10:15:08.006Z,11.74
2022-11-02T10:16:07.981Z,11.82
2022-11-02T10:17:07.970Z,11.89
2022-11-02T10:18:08.000Z,11.94
2022-11-02T10:19:07.943Z,11.97
2022-11-02T10:20:07.934Z,11.98
2022-11-02T10:21:07.977Z,11.99
2022-11-02T10:22:07.915Z,12.03
2022-11-02T10:23:08.137Z,12.06
2022-11-02T10:24:07.900Z,12.07
2022-11-02T10:25:07.946Z,12.07
2022-11-02T10:26:08.005Z,12.06
2022-11-02T10:27:13.013Z,12.04
2022-11-02T10:28:07.956Z,12.02
2022-11-02T10:29:07.904Z,12.03
2022-11-02T10:30:07.870Z,12.08
2022-11-02T10:31:11.766Z,12.13
2022-11-02T10:32:07.831Z,12.21
2022-11-02T10:33:07.876Z,12.26
2022-11-02T10:34:07.871Z,12.28
2022-11-02T10:35:29.921Z,12.28
2022-11-02T10:36:23.171Z,12.27
2022-11-02T10:37:07.822Z,12.28
2022-11-02T10:38:13.482Z,12.30
2022-11-02T10:39:07.779Z,12.32
2022-11-02T10:40:07.740Z,12.40
2022-11-02T10:41:07.742Z,12.51
2022-11-02T10:42:07.819Z,12.57
2022-11-02T10:43:07.761Z,12.61
2022-11-02T10:44:07.736Z,12.61
2022-11-02T10:45:07.706Z,12.65
2022-11-02T10:46:07.723Z,12.71
2022-11-02T10:47:07.884Z,12.70
2022-11-02T10:48:07.951Z,12.62
2022-11-02T10:49:07.645Z,12.58
2022-11-02T10:50:12.064Z,12.57
2022-11-02T10:51:07.638Z,12.58
2022-11-02T10:52:07.653Z,12.60
2022-11-02T10:53:35.296Z,12.63
2022-11-02T10:54:07.775Z,12.64
2022-11-02T10:55:07.640Z,12.67
2022-11-02T10:56:07.589Z,12.69
2022-11-02T10:57:07.577Z,12.69
2022-11-02T10:58:08.271Z,12.65
2022-11-02T10:59:07.613Z,12.61
2022-11-02T11:00:07.566Z,12.60
2022-11-02T11:01:07.755Z,12.61
2022-11-02T11:02:07.598Z,12.63
2022-11-02T11:03:07.644Z,12.67
2022-11-02T11:04:07.522Z,12.73
2022-11-02T11:05:07.541Z,12.74
2022-11-02T11:06:07.474Z,12.73
2022-11-02T11:07:07.462Z,12.76
2022-11-02T11:08:07.841Z,12.81
2022-11-02T11:09:07.500Z,12.83
2022-11-02T11:10:07.423Z,12.82
2022-11-02T11:11:07.425Z,12.83
2022-11-02T11:12:07.544Z,12.85
2022-11-02T11:13:07.799Z,12.87
2022-11-02T11:16:08.810Z,12.95
2022-11-02T11:20:07.651Z,12.74
2022-11-02T11:21:07.327Z,12.74
2022-11-02T11:22:07.312Z,12.76
2022-11-02T11:23:07.560Z,12.80
2022-11-02T11:24:07.339Z,12.86
2022-11-02T11:25:07.286Z,12.91
2022-11-02T11:26:07.373Z,12.96
2022-11-02T11:27:07.281Z,13.02
2022-11-02T11:28:07.571Z,12.99
2022-11-02T11:29:07.241Z,12.92
2022-11-02T11:30:07.240Z,12.88
2022-11-02T11:31:07.244Z,12.90
2022-11-02T11:32:07.319Z,12.92
2022-11-02T11:33:07.749Z,12.92
2022-11-02T11:34:07.232Z,12.92
2022-11-02T11:35:07.227Z,12.90
2022-11-02T11:36:07.186Z,12.86
2022-11-02T11:37:07.238Z,12.82
2022-11-02T11:38:07.474Z,12.78
2022-11-02T11:39:07.265Z,12.77
2022-11-02T11:40:07.269Z,12.77
2022-11-02T11:41:07.258Z,12.80
2022-11-02T11:42:07.147Z,12.84
2022-11-02T11:43:07.185Z,12.85
2022-11-02T11:44:07.138Z,12.85
2022-11-02T11:45:07.080Z,12.85
2022-11-02T11:46:07.397Z,12.86
2022-11-02T11:47:07.061Z,12.87
2022-11-02T11:48:07.423Z,12.88
2022-11-02T11:49:07.092Z,12.88
2022-11-02T11:50:12.342Z,12.87
2022-11-02T11:51:07.134Z,12.85
2022-11-02T11:52:07.148Z,12.85
2022-11-02T11:53:07.371Z,12.86
2022-11-02T11:54:06.999Z,12.87
2022-11-02T11:55:07.016Z,12.87
2022-11-02T11:56:07.009Z,12.85
2022-11-02T11:57:07.015Z,12.83
2022-11-02T11:58:07.410Z,12.84
2022-11-02T11:59:06.942Z,12.84
2022-11-02T12:00:06.933Z,12.83
2022-11-02T12:01:10.194Z,12.80
2022-11-02T12:02:07.062Z,12.77
2022-11-02T12:03:07.667Z,12.80
2022-11-02T12:04:06.935Z,12.84
2022-11-02T12:05:06.993Z,12.87
2022-11-02T12:06:06.872Z,12.88
2022-11-02T12:07:06.869Z,12.90
2022-11-02T12:08:07.332Z,12.89
2022-11-02T12:09:06.891Z,12.86
2022-11-02T12:10:06.822Z,12.83
2022-11-02T12:11:06.931Z,12.82
2022-11-02T12:12:06.801Z,12.82
2022-11-02T12:13:07.330Z,12.82
2022-11-02T12:14:06.778Z,12.81
2022-11-02T12:15:07.260Z,12.78
2022-11-02T12:16:06.816Z,12.77
2022-11-02T12:17:06.761Z,12.75
2022-11-02T12:18:07.154Z,12.75
2022-11-02T12:19:06.727Z,12.74
2022-11-02T12:20:06.741Z,12.73
2022-11-02T12:21:06.736Z,12.70
2022-11-02T12:22:06.802Z,12.66
2022-11-02T12:23:07.127Z,12.62
2022-11-02T12:24:06.753Z,12.60
2022-11-02T12:25:06.718Z,12.61
2022-11-02T12:26:06.661Z,12.61
2022-11-02T12:27:06.704Z,12.64
2022-11-02T12:28:06.673Z,12.69
2022-11-02T12:29:06.669Z,12.73
2022-11-02T12:30:06.740Z,12.77
2022-11-02T12:31:06.689Z,12.79
2022-11-02T12:32:06.604Z,12.82
2022-11-02T12:33:07.030Z,12.90
2022-11-02T12:34:06.579Z,12.99
2022-11-02T12:35:27.730Z,13.03
2022-11-02T12:36:06.574Z,13.05
2022-11-02T12:38:07.644Z,12.98
2022-11-02T12:39:06.627Z,12.97
2022-11-02T12:40:06.522Z,13.00
2022-11-02T12:41:06.555Z,13.01
2022-11-02T12:42:06.569Z,13.01
2022-11-02T12:43:06.924Z,13.01
2022-11-02T12:44:06.544Z,13.01
2022-11-02T12:45:06.478Z,13.02
2022-11-02T12:46:06.495Z,13.01
2022-11-02T12:47:06.451Z,12.97
2022-11-02T12:48:06.863Z,12.92
2022-11-02T12:49:06.619Z,12.88
2022-11-02T12:50:06.432Z,12.85
2022-11-02T12:51:06.465Z,12.84
2022-11-02T12:52:06.419Z,12.82
2022-11-02T12:53:06.758Z,12.80
2022-11-02T12:54:06.396Z,12.80
2022-11-02T12:55:06.366Z,12.79
2022-11-02T12:56:06.412Z,12.79
2022-11-02T12:57:06.382Z,12.79
2022-11-02T12:58:06.855Z,12.80
2022-11-02T12:59:06.343Z,12.78
2022-11-02T13:00:06.319Z,12.77
2022-11-02T13:01:12.391Z,12.76
2022-11-02T13:03:06.637Z,12.79
2022-11-02T13:04:06.420Z,12.80
2022-11-02T13:05:06.287Z,12.82
2022-11-02T13:06:06.332Z,12.97
2022-11-02T13:07:06.292Z,13.25
2022-11-02T13:08:06.681Z,13.51
2022-11-02T13:09:06.226Z,13.68
2022-11-02T13:10:06.217Z,13.89
2022-11-02T13:11:06.311Z,14.27
2022-11-02T13:12:06.255Z,14.79
2022-11-02T13:13:06.590Z,15.32
2022-11-02T13:14:06.269Z,15.86
2022-11-02T13:15:11.805Z,16.27
2022-11-02T13:16:06.185Z,16.31